sensor_id;sensor_type;location;lat;lon;timestamp;pressure;altitude;pressure_sealevel;temperature;humidity
12360;BME280;6244;51.460;7.090;2023-01-31T00:00:30;101471.72;;;4.70;74.02
12360;BME280;6244;51.460;7.090;2023-01-31T00:05:28;101470.84;;;4.70;73.98
12360;BME280;6244;51.460;7.090;2023-01-31T00:10:24;101475.19;;;4.71;73.73
12360;BME280;6244;51.460;7.090;2023-01-31T00:15:21;101460.47;;;4.71;73.84
12360;BME280;6244;51.460;7.090;2023-01-31T00:20:18;101466.53;;;4.70;74.01
12360;BME280;6244;51.460;7.090;2023-01-31T00:25:16;101473.47;;;4.71;73.72
12360;BME280;6244;51.460;7.090;2023-01-31T00:30:13;101469.13;;;4.70;74.09
12360;BME280;6244;51.460;7.090;2023-01-31T00:35:09;101475.22;;;4.68;73.99
12360;BME280;6244;51.460;7.090;2023-01-31T00:40:06;101468.25;;;4.70;73.94
12360;BME280;6244;51.460;7.090;2023-01-31T00:45:06;101470.00;;;4.69;74.32
12360;BME280;6244;51.460;7.090;2023-01-31T00:50:03;101463.09;;;4.68;74.04
12360;BME280;6244;51.460;7.090;2023-01-31T00:55:01;101448.34;;;4.69;74.25
12360;BME280;6244;51.460;7.090;2023-01-31T00:59:57;101457.84;;;4.70;74.27
12360;BME280;6244;51.460;7.090;2023-01-31T01:04:55;101464.81;;;4.68;74.29
12360;BME280;6244;51.460;7.090;2023-01-31T01:09:51;101466.56;;;4.67;74.34
12360;BME280;6244;51.460;7.090;2023-01-31T01:14:48;101473.47;;;4.68;74.15
12360;BME280;6244;51.460;7.090;2023-01-31T01:19:45;101472.63;;;4.68;74.45
12360;BME280;6244;51.460;7.090;2023-01-31T01:24:43;101464.00;;;4.66;74.42
12360;BME280;6244;51.460;7.090;2023-01-31T01:29:40;101461.41;;;4.64;74.24
12360;BME280;6244;51.460;7.090;2023-01-31T01:34:36;101460.53;;;4.65;74.13
12360;BME280;6244;51.460;7.090;2023-01-31T01:39:33;101459.69;;;4.65;74.43
12360;BME280;6244;51.460;7.090;2023-01-31T01:44:46;101453.66;;;4.61;74.30
12360;BME280;6244;51.460;7.090;2023-01-31T01:49:43;101456.34;;;4.55;74.17
12360;BME280;6244;51.460;7.090;2023-01-31T01:54:44;101449.38;;;4.57;74.15
12360;BME280;6244;51.460;7.090;2023-01-31T01:59:44;101448.50;;;4.57;74.13
12360;BME280;6244;51.460;7.090;2023-01-31T02:04:46;101451.97;;;4.57;74.29
12360;BME280;6244;51.460;7.090;2023-01-31T02:09:48;101446.81;;;4.54;74.14
12360;BME280;6244;51.460;7.090;2023-01-31T02:14:49;101463.34;;;4.50;74.26
12360;BME280;6244;51.460;7.090;2023-01-31T02:19:56;101470.22;;;4.54;74.23
12360;BME280;6244;51.460;7.090;2023-01-31T02:30:58;101472.03;;;4.49;73.91
12360;BME280;6244;51.460;7.090;2023-01-31T02:36:08;101483.25;;;4.51;74.18
12360;BME280;6244;51.460;7.090;2023-01-31T02:41:14;101478.09;;;4.48;74.05
12360;BME280;6244;51.460;7.090;2023-01-31T02:46:15;101470.31;;;4.48;73.92
12360;BME280;6244;51.460;7.090;2023-01-31T02:51:18;101470.31;;;4.48;74.32
12360;BME280;6244;51.460;7.090;2023-01-31T02:56:17;101466.94;;;4.40;74.09
12360;BME280;6244;51.460;7.090;2023-01-31T03:01:20;101471.19;;;4.46;74.07
12360;BME280;6244;51.460;7.090;2023-01-31T03:06:47;101471.19;;;4.46;74.04
12360;BME280;6244;51.460;7.090;2023-01-31T03:11:52;101460.81;;;4.47;74.31
12360;BME280;6244;51.460;7.090;2023-01-31T03:16:55;101453.00;;;4.47;74.11
12360;BME280;6244;51.460;7.090;2023-01-31T03:22:16;101439.16;;;4.45;74.08
12360;BME280;6244;51.460;7.090;2023-01-31T03:27:18;101435.66;;;4.46;74.06
12360;BME280;6244;51.460;7.090;2023-01-31T03:32:20;101429.63;;;4.44;73.96
12360;BME280;6244;51.460;7.090;2023-01-31T03:37:24;101423.56;;;4.43;74.38
12360;BME280;6244;51.460;7.090;2023-01-31T03:42:31;101416.63;;;4.46;74.17
12360;BME280;6244;51.460;7.090;2023-01-31T03:47:32;101404.47;;;4.46;74.25
12360;BME280;6244;51.460;7.090;2023-01-31T03:52:36;101399.28;;;4.46;74.21
12360;BME280;6244;51.460;7.090;2023-01-31T03:57:35;101391.50;;;4.46;73.91
12360;BME280;6244;51.460;7.090;2023-01-31T04:02:35;101387.16;;;4.45;73.90
12360;BME280;6244;51.460;7.090;2023-01-31T04:07:34;101375.03;;;4.46;73.85
12360;BME280;6244;51.460;7.090;2023-01-31T04:12:34;101374.19;;;4.47;73.99
12360;BME280;6244;51.460;7.090;2023-01-31T04:17:31;101369.88;;;4.42;74.00
12360;BME280;6244;51.460;7.090;2023-01-31T04:22:28;101375.09;;;4.42;74.20
12360;BME280;6244;51.460;7.090;2023-01-31T04:27:26;101373.38;;;4.41;73.78
12360;BME280;6244;51.460;7.090;2023-01-31T04:32:22;101380.31;;;4.41;74.08
12360;BME280;6244;51.460;7.090;2023-01-31T04:37:19;101392.44;;;4.40;74.03
12360;BME280;6244;51.460;7.090;2023-01-31T04:42:15;101384.66;;;4.40;74.12
12360;BME280;6244;51.460;7.090;2023-01-31T04:47:13;101373.41;;;4.40;73.63
12360;BME280;6244;51.460;7.090;2023-01-31T04:52:09;101373.44;;;4.38;73.89
12360;BME280;6244;51.460;7.090;2023-01-31T04:57:06;101356.13;;;4.37;73.97
12360;BME280;6244;51.460;7.090;2023-01-31T05:02:03;101364.78;;;4.36;74.05
12360;BME280;6244;51.460;7.090;2023-01-31T05:07:00;101363.06;;;4.37;74.09
12360;BME280;6244;51.460;7.090;2023-01-31T05:11:57;101360.47;;;4.37;74.44
12360;BME280;6244;51.460;7.090;2023-01-31T05:16:53;101350.03;;;4.38;74.32
12360;BME280;6244;51.460;7.090;2023-01-31T05:21:50;101348.38;;;4.34;74.33
12360;BME280;6244;51.460;7.090;2023-01-31T05:26:55;101343.16;;;4.36;74.71
12360;BME280;6244;51.460;7.090;2023-01-31T05:31:54;101337.94;;;4.37;74.79
12360;BME280;6244;51.460;7.090;2023-01-31T05:36:51;101338.78;;;4.38;74.62
12360;BME280;6244;51.460;7.090;2023-01-31T05:41:48;101330.97;;;4.39;74.53
12360;BME280;6244;51.460;7.090;2023-01-31T05:46:45;101317.16;;;4.37;74.57
12360;BME280;6244;51.460;7.090;2023-01-31T05:51:42;101321.44;;;4.40;74.84
12360;BME280;6244;51.460;7.090;2023-01-31T05:56:38;101318.00;;;4.38;74.77
12360;BME280;6244;51.460;7.090;2023-01-31T06:01:35;101299.84;;;4.36;74.66
12360;BME280;6244;51.460;7.090;2023-01-31T06:06:33;101288.56;;;4.37;74.96
12360;BME280;6244;51.460;7.090;2023-01-31T06:11:30;101278.16;;;4.37;74.73
12360;BME280;6244;51.460;7.090;2023-01-31T06:16:26;101270.34;;;4.39;74.71
12360;BME280;6244;51.460;7.090;2023-01-31T06:21:23;101285.94;;;4.39;74.80
12360;BME280;6244;51.460;7.090;2023-01-31T06:26:21;101294.56;;;4.41;74.53
12360;BME280;6244;51.460;7.090;2023-01-31T06:31:17;101293.72;;;4.39;74.57
12360;BME280;6244;51.460;7.090;2023-01-31T06:36:14;101298.97;;;4.37;74.44
12360;BME280;6244;51.460;7.090;2023-01-31T06:41:11;101304.09;;;4.40;74.40
12360;BME280;6244;51.460;7.090;2023-01-31T06:46:09;101308.41;;;4.41;74.48
12360;BME280;6244;51.460;7.090;2023-01-31T06:51:06;101311.91;;;4.40;74.46
12360;BME280;6244;51.460;7.090;2023-01-31T06:56:03;101303.22;;;4.41;74.60
12360;BME280;6244;51.460;7.090;2023-01-31T07:01:03;101306.66;;;4.43;74.32
12360;BME280;6244;51.460;7.090;2023-01-31T07:06:01;101303.28;;;4.38;74.50
12360;BME280;6244;51.460;7.090;2023-01-31T07:10:58;101307.59;;;4.39;74.40
12360;BME280;6244;51.460;7.090;2023-01-31T07:15:56;101312.72;;;4.42;74.81
12360;BME280;6244;51.460;7.090;2023-01-31T07:20:53;101325.75;;;4.41;74.40
12360;BME280;6244;51.460;7.090;2023-01-31T07:25:51;101311.91;;;4.40;74.70
12360;BME280;6244;51.460;7.090;2023-01-31T07:30:47;101307.56;;;4.41;74.49
12360;BME280;6244;51.460;7.090;2023-01-31T07:35:45;101300.59;;;4.43;74.51
12360;BME280;6244;51.460;7.090;2023-01-31T07:40:42;101302.34;;;4.41;74.23
12360;BME280;6244;51.460;7.090;2023-01-31T07:45:40;101307.53;;;4.42;74.59
12360;BME280;6244;51.460;7.090;2023-01-31T07:50:36;101291.94;;;4.42;74.61
12360;BME280;6244;51.460;7.090;2023-01-31T07:55:33;101282.38;;;4.45;74.52
12360;BME280;6244;51.460;7.090;2023-01-31T08:00:30;101288.44;;;4.47;74.32
12360;BME280;6244;51.460;7.090;2023-01-31T08:05:45;101282.34;;;4.48;74.24
12360;BME280;6244;51.460;7.090;2023-01-31T08:10:42;101274.56;;;4.48;74.46
12360;BME280;6244;51.460;7.090;2023-01-31T08:15:41;101261.56;;;4.48;74.32
12360;BME280;6244;51.460;7.090;2023-01-31T08:20:37;101263.22;;;4.52;74.33
12360;BME280;6244;51.460;7.090;2023-01-31T08:25:36;101262.31;;;4.53;73.82
12360;BME280;6244;51.460;7.090;2023-01-31T08:30:33;101258.84;;;4.54;74.12
12360;BME280;6244;51.460;7.090;2023-01-31T08:35:29;101275.34;;;4.51;74.21
12360;BME280;6244;51.460;7.090;2023-01-31T08:40:26;101288.31;;;4.53;74.37
12360;BME280;6244;51.460;7.090;2023-01-31T08:45:24;101272.69;;;4.54;74.61
12360;BME280;6244;51.460;7.090;2023-01-31T08:50:21;101260.63;;;4.52;74.64
12360;BME280;6244;51.460;7.090;2023-01-31T08:55:17;101248.50;;;4.51;75.05
12360;BME280;6244;51.460;7.090;2023-01-31T09:00:15;101234.59;;;4.53;75.47
12360;BME280;6244;51.460;7.090;2023-01-31T09:05:13;101219.84;;;4.55;75.25
12360;BME280;6244;51.460;7.090;2023-01-31T09:10:10;101197.34;;;4.53;75.69
12360;BME280;6244;51.460;7.090;2023-01-31T09:15:07;101199.09;;;4.52;75.79
12360;BME280;6244;51.460;7.090;2023-01-31T09:20:05;101196.50;;;4.52;76.05
12360;BME280;6244;51.460;7.090;2023-01-31T09:25:06;101213.84;;;4.52;76.30
12360;BME280;6244;51.460;7.090;2023-01-31T09:30:04;101200.84;;;4.52;76.43
12360;BME280;6244;51.460;7.090;2023-01-31T09:35:01;101202.56;;;4.53;76.69
12360;BME280;6244;51.460;7.090;2023-01-31T09:39:58;101188.72;;;4.52;76.55
12360;BME280;6244;51.460;7.090;2023-01-31T09:45:02;101186.94;;;4.54;76.68
12360;BME280;6244;51.460;7.090;2023-01-31T09:50:02;101184.34;;;4.54;77.05
12360;BME280;6244;51.460;7.090;2023-01-31T09:54:59;101186.03;;;4.55;77.22
12360;BME280;6244;51.460;7.090;2023-01-31T10:00:05;101183.41;;;4.57;77.09
12360;BME280;6244;51.460;7.090;2023-01-31T10:05:16;101157.50;;;4.54;77.27
12360;BME280;6244;51.460;7.090;2023-01-31T10:10:21;101178.19;;;4.58;77.50
12360;BME280;6244;51.460;7.090;2023-01-31T10:15:28;101170.38;;;4.60;77.53
12360;BME280;6244;51.460;7.090;2023-01-31T10:20:32;101159.09;;;4.61;77.46
12360;BME280;6244;51.460;7.090;2023-01-31T10:25:33;101134.84;;;4.60;77.49
12360;BME280;6244;51.460;7.090;2023-01-31T10:30:40;101116.63;;;4.62;77.82
12360;BME280;6244;51.460;7.090;2023-01-31T10:35:40;101114.00;;;4.63;78.05
12360;BME280;6244;51.460;7.090;2023-01-31T10:40:41;101116.59;;;4.63;77.99
12360;BME280;6244;51.460;7.090;2023-01-31T10:45:40;101120.00;;;4.67;78.11
12360;BME280;6244;51.460;7.090;2023-01-31T10:50:48;101115.69;;;4.66;78.29
12360;BME280;6244;51.460;7.090;2023-01-31T10:55:54;101119.06;;;4.69;78.31
12360;BME280;6244;51.460;7.090;2023-01-31T11:00:54;101109.53;;;4.70;78.64
12360;BME280;6244;51.460;7.090;2023-01-31T11:05:53;101098.22;;;4.71;78.77
12360;BME280;6244;51.460;7.090;2023-01-31T11:10:51;101101.69;;;4.73;78.97
12360;BME280;6244;51.460;7.090;2023-01-31T11:15:49;101096.38;;;4.78;78.75
12360;BME280;6244;51.460;7.090;2023-01-31T11:20:48;101079.91;;;4.79;78.98
12360;BME280;6244;51.460;7.090;2023-01-31T11:25:47;101080.72;;;4.81;78.96
12360;BME280;6244;51.460;7.090;2023-01-31T11:30:46;101066.78;;;4.83;79.10
12360;BME280;6244;51.460;7.090;2023-01-31T11:35:51;101082.34;;;4.86;78.89
12360;BME280;6244;51.460;7.090;2023-01-31T11:40:48;101070.19;;;4.87;79.36
12360;BME280;6244;51.460;7.090;2023-01-31T11:45:52;101069.28;;;4.89;79.02
12360;BME280;6244;51.460;7.090;2023-01-31T11:50:53;101048.38;;;4.94;79.28
12360;BME280;6244;51.460;7.090;2023-01-31T11:55:52;101054.38;;;4.97;79.35
12360;BME280;6244;51.460;7.090;2023-01-31T12:00:55;101055.28;;;4.95;79.54
12360;BME280;6244;51.460;7.090;2023-01-31T12:06:01;101048.25;;;5.00;79.21
12360;BME280;6244;51.460;7.090;2023-01-31T12:10:58;101053.34;;;5.05;79.05
12360;BME280;6244;51.460;7.090;2023-01-31T12:15:57;101036.88;;;5.04;79.31
12360;BME280;6244;51.460;7.090;2023-01-31T12:21:02;101043.78;;;5.05;79.44
12360;BME280;6244;51.460;7.090;2023-01-31T12:26:08;101037.63;;;5.11;79.36
12360;BME280;6244;51.460;7.090;2023-01-31T12:31:18;101025.50;;;5.10;79.51
12360;BME280;6244;51.460;7.090;2023-01-31T12:36:29;100991.66;;;5.11;79.56
12360;BME280;6244;51.460;7.090;2023-01-31T12:41:31;101000.22;;;5.15;79.71
12360;BME280;6244;51.460;7.090;2023-01-31T12:46:34;100989.69;;;5.19;79.18
12360;BME280;6244;51.460;7.090;2023-01-31T12:51:41;100987.09;;;5.21;79.34
12360;BME280;6244;51.460;7.090;2023-01-31T12:56:48;100999.13;;;5.25;79.45
12360;BME280;6244;51.460;7.090;2023-01-31T13:01:54;101002.53;;;5.27;79.63
12360;BME280;6244;51.460;7.090;2023-01-31T13:06:57;100994.69;;;5.28;79.63
12360;BME280;6244;51.460;7.090;2023-01-31T13:11:57;101008.50;;;5.30;79.46
12360;BME280;6244;51.460;7.090;2023-01-31T13:16:59;101007.66;;;5.30;79.52
12360;BME280;6244;51.460;7.090;2023-01-31T13:22:01;101010.19;;;5.33;79.59
12360;BME280;6244;51.460;7.090;2023-01-31T13:27:03;101004.97;;;5.35;79.53
12360;BME280;6244;51.460;7.090;2023-01-31T13:32:08;101010.09;;;5.38;79.79
12360;BME280;6244;51.460;7.090;2023-01-31T13:37:10;101004.03;;;5.37;79.82
12360;BME280;6244;51.460;7.090;2023-01-31T13:42:09;101013.47;;;5.41;79.64
12360;BME280;6244;51.460;7.090;2023-01-31T13:47:13;101013.38;;;5.44;79.86
12360;BME280;6244;51.460;7.090;2023-01-31T13:52:16;100998.72;;;5.42;80.04
12360;BME280;6244;51.460;7.090;2023-01-31T13:57:22;100996.97;;;5.42;80.22
12360;BME280;6244;51.460;7.090;2023-01-31T14:02:19;100996.03;;;5.45;80.25
12360;BME280;6244;51.460;7.090;2023-01-31T14:07:19;100989.97;;;5.46;80.23
12360;BME280;6244;51.460;7.090;2023-01-31T14:12:31;100978.66;;;5.45;80.20
12360;BME280;6244;51.460;7.090;2023-01-31T14:17:56;100985.63;;;5.45;80.51
12360;BME280;6244;51.460;7.090;2023-01-31T14:23:27;100981.25;;;5.47;80.32
12360;BME280;6244;51.460;7.090;2023-01-31T14:28:25;100994.19;;;5.50;80.68
12360;BME280;6244;51.460;7.090;2023-01-31T14:33:24;100982.91;;;5.49;80.76
12360;BME280;6244;51.460;7.090;2023-01-31T14:38:34;100987.19;;;5.52;80.98
12360;BME280;6244;51.460;7.090;2023-01-31T14:43:45;100991.53;;;5.51;80.97
12360;BME280;6244;51.460;7.090;2023-01-31T14:49:11;100996.69;;;5.53;81.00
12360;BME280;6244;51.460;7.090;2023-01-31T14:54:24;100994.88;;;5.56;81.08
12360;BME280;6244;51.460;7.090;2023-01-31T14:59:27;100999.16;;;5.59;81.27
12360;BME280;6244;51.460;7.090;2023-01-31T15:04:25;100995.72;;;5.57;81.43
12360;BME280;6244;51.460;7.090;2023-01-31T15:09:38;101016.50;;;5.60;81.49
12360;BME280;6244;51.460;7.090;2023-01-31T15:14:36;101012.13;;;5.60;81.55
12360;BME280;6244;51.460;7.090;2023-01-31T15:19:42;101025.13;;;5.62;81.87
12360;BME280;6244;51.460;7.090;2023-01-31T15:24:44;101030.25;;;5.65;82.08
12360;BME280;6244;51.460;7.090;2023-01-31T15:29:48;101023.25;;;5.67;81.69
12360;BME280;6244;51.460;7.090;2023-01-31T15:34:52;101024.91;;;5.70;81.94
12360;BME280;6244;51.460;7.090;2023-01-31T15:39:53;101023.25;;;5.67;82.18
12360;BME280;6244;51.460;7.090;2023-01-31T15:45:11;101027.50;;;5.71;82.09
12360;BME280;6244;51.460;7.090;2023-01-31T15:50:15;101045.63;;;5.74;82.07
12360;BME280;6244;51.460;7.090;2023-01-31T15:55:15;101062.13;;;5.75;82.63
12360;BME280;6244;51.460;7.090;2023-01-31T16:00:19;101043.84;;;5.76;82.39
12360;BME280;6244;51.460;7.090;2023-01-31T16:05:19;101051.50;;;5.82;82.47
12360;BME280;6244;51.460;7.090;2023-01-31T16:10:17;101061.09;;;5.80;82.65
12360;BME280;6244;51.460;7.090;2023-01-31T16:15:18;101049.72;;;5.84;82.58
12360;BME280;6244;51.460;7.090;2023-01-31T16:20:38;101054.00;;;5.87;82.59
12360;BME280;6244;51.460;7.090;2023-01-31T16:25:36;101060.00;;;5.91;82.88
12360;BME280;6244;51.460;7.090;2023-01-31T16:30:33;101065.22;;;5.91;82.55
12360;BME280;6244;51.460;7.090;2023-01-31T16:35:29;101055.56;;;5.94;83.08
12360;BME280;6244;51.460;7.090;2023-01-31T16:40:29;101066.78;;;5.98;83.02
12360;BME280;6244;51.460;7.090;2023-01-31T16:45:29;101072.75;;;6.01;82.67
12360;BME280;6244;51.460;7.090;2023-01-31T16:50:29;101057.19;;;6.00;82.69
12360;BME280;6244;51.460;7.090;2023-01-31T16:55:26;101056.28;;;6.01;82.56
12360;BME280;6244;51.460;7.090;2023-01-31T17:00:33;101072.72;;;6.03;82.73
12360;BME280;6244;51.460;7.090;2023-01-31T17:05:38;101077.03;;;6.04;82.80
12360;BME280;6244;51.460;7.090;2023-01-31T17:10:35;101101.28;;;6.06;82.58
12360;BME280;6244;51.460;7.090;2023-01-31T17:15:33;101111.66;;;6.09;82.53
12360;BME280;6244;51.460;7.090;2023-01-31T17:20:30;101094.22;;;6.11;82.74
12360;BME280;6244;51.460;7.090;2023-01-31T17:25:31;101091.59;;;6.12;82.58
12360;BME280;6244;51.460;7.090;2023-01-31T17:30:28;101094.28;;;6.09;82.62
12360;BME280;6244;51.460;7.090;2023-01-31T17:35:29;101091.63;;;6.11;82.76
12360;BME280;6244;51.460;7.090;2023-01-31T17:40:27;101074.19;;;6.13;82.78
12360;BME280;6244;51.460;7.090;2023-01-31T17:45:24;101070.59;;;6.17;82.40
12360;BME280;6244;51.460;7.090;2023-01-31T17:50:22;101081.84;;;6.19;82.44
12360;BME280;6244;51.460;7.090;2023-01-31T17:55:21;101075.72;;;6.20;82.62
12360;BME280;6244;51.460;7.090;2023-01-31T18:00:20;101068.81;;;6.19;82.20
12360;BME280;6244;51.460;7.090;2023-01-31T18:05:19;101068.72;;;6.24;82.47
12360;BME280;6244;51.460;7.090;2023-01-31T18:10:16;101067.91;;;6.20;82.48
12360;BME280;6244;51.460;7.090;2023-01-31T18:15:14;101074.00;;;6.21;82.18
12360;BME280;6244;51.460;7.090;2023-01-31T18:20:11;101072.28;;;6.19;82.73
12360;BME280;6244;51.460;7.090;2023-01-31T18:25:07;101067.84;;;6.23;82.21
12360;BME280;6244;51.460;7.090;2023-01-31T18:30:05;101072.94;;;6.28;82.66
12360;BME280;6244;51.460;7.090;2023-01-31T18:35:04;101077.28;;;6.27;82.09
12360;BME280;6244;51.460;7.090;2023-01-31T18:40:01;101077.25;;;6.29;82.07
12360;BME280;6244;51.460;7.090;2023-01-31T18:44:57;101077.28;;;6.27;82.32
12360;BME280;6244;51.460;7.090;2023-01-31T18:49:54;101077.28;;;6.27;82.35
12360;BME280;6244;51.460;7.090;2023-01-31T18:54:51;101079.09;;;6.25;81.77
12360;BME280;6244;51.460;7.090;2023-01-31T18:59:48;101083.44;;;6.25;82.33
12360;BME280;6244;51.460;7.090;2023-01-31T19:04:45;101101.72;;;6.23;81.94
12360;BME280;6244;51.460;7.090;2023-01-31T19:09:42;101102.63;;;6.22;81.98
12360;BME280;6244;51.460;7.090;2023-01-31T19:14:41;101107.00;;;6.20;81.46
12360;BME280;6244;51.460;7.090;2023-01-31T19:19:38;101100.97;;;6.18;81.31
12360;BME280;6244;51.460;7.090;2023-01-31T19:24:34;101094.91;;;6.17;81.68
12360;BME280;6244;51.460;7.090;2023-01-31T19:29:31;101113.09;;;6.19;81.52
12360;BME280;6244;51.460;7.090;2023-01-31T19:34:29;101115.72;;;6.19;81.44
12360;BME280;6244;51.460;7.090;2023-01-31T19:39:26;101114.91;;;6.17;81.36
12360;BME280;6244;51.460;7.090;2023-01-31T19:44:22;101103.63;;;6.16;81.27
12360;BME280;6244;51.460;7.090;2023-01-31T19:49:19;101101.91;;;6.15;80.84
12360;BME280;6244;51.460;7.090;2023-01-31T19:54:17;101116.75;;;6.13;80.79
12360;BME280;6244;51.460;7.090;2023-01-31T19:59:14;101111.63;;;6.10;80.61
12360;BME280;6244;51.460;7.090;2023-01-31T20:04:11;101119.38;;;6.12;80.72
12360;BME280;6244;51.460;7.090;2023-01-31T20:09:08;101127.31;;;6.07;80.52
12360;BME280;6244;51.460;7.090;2023-01-31T20:14:11;101130.78;;;6.08;80.89
12360;BME280;6244;51.460;7.090;2023-01-31T20:19:09;101128.19;;;6.08;80.73
12360;BME280;6244;51.460;7.090;2023-01-31T20:24:06;101125.59;;;6.08;80.50
12360;BME280;6244;51.460;7.090;2023-01-31T20:29:02;101123.88;;;6.05;80.71
12360;BME280;6244;51.460;7.090;2023-01-31T20:34:00;101112.59;;;6.05;80.68
12360;BME280;6244;51.460;7.090;2023-01-31T20:38:57;101115.31;;;6.02;80.81
12360;BME280;6244;51.460;7.090;2023-01-31T20:43:53;101115.31;;;6.02;80.86
12360;BME280;6244;51.460;7.090;2023-01-31T20:48:57;101105.78;;;6.01;80.63
12360;BME280;6244;51.460;7.090;2023-01-31T20:53:54;101115.34;;;6.00;80.71
12360;BME280;6244;51.460;7.090;2023-01-31T20:58:53;101110.22;;;5.97;80.59
12360;BME280;6244;51.460;7.090;2023-01-31T21:03:49;101107.63;;;5.97;80.30
12360;BME280;6244;51.460;7.090;2023-01-31T21:08:47;101103.31;;;5.95;80.33
12360;BME280;6244;51.460;7.090;2023-01-31T21:13:44;101100.69;;;5.95;80.41
12360;BME280;6244;51.460;7.090;2023-01-31T21:18:42;101101.59;;;5.94;80.58
12360;BME280;6244;51.460;7.090;2023-01-31T21:23:39;101097.31;;;5.91;80.45
12360;BME280;6244;51.460;7.090;2023-01-31T21:28:36;101093.88;;;5.89;80.50
12360;BME280;6244;51.460;7.090;2023-01-31T21:33:35;101082.66;;;5.87;80.42
12360;BME280;6244;51.460;7.090;2023-01-31T21:38:31;101082.69;;;5.85;80.55
12360;BME280;6244;51.460;7.090;2023-01-31T21:43:29;101089.69;;;5.82;80.16
12360;BME280;6244;51.460;7.090;2023-01-31T21:48:26;101094.06;;;5.81;80.41
12360;BME280;6244;51.460;7.090;2023-01-31T21:53:27;101079.41;;;5.77;80.52
12360;BME280;6244;51.460;7.090;2023-01-31T21:58:24;101066.38;;;5.77;80.38
12360;BME280;6244;51.460;7.090;2023-01-31T22:03:21;101071.63;;;5.76;80.26
12360;BME280;6244;51.460;7.090;2023-01-31T22:08:17;101058.63;;;5.76;80.19
12360;BME280;6244;51.460;7.090;2023-01-31T22:13:15;101054.22;;;5.78;80.18
12360;BME280;6244;51.460;7.090;2023-01-31T22:18:11;101049.91;;;5.77;80.12
12360;BME280;6244;51.460;7.090;2023-01-31T22:23:08;101048.19;;;5.76;80.21
12360;BME280;6244;51.460;7.090;2023-01-31T22:28:04;101042.13;;;5.75;80.35
12360;BME280;6244;51.460;7.090;2023-01-31T22:33:02;101047.38;;;5.74;80.56
12360;BME280;6244;51.460;7.090;2023-01-31T22:37:59;101044.78;;;5.74;80.15
12360;BME280;6244;51.460;7.090;2023-01-31T22:42:59;101037.88;;;5.73;80.42
12360;BME280;6244;51.460;7.090;2023-01-31T22:47:55;101035.31;;;5.71;80.46
12360;BME280;6244;51.460;7.090;2023-01-31T22:52:53;101049.19;;;5.72;80.57
12360;BME280;6244;51.460;7.090;2023-01-31T22:57:50;101040.53;;;5.71;80.71
12360;BME280;6244;51.460;7.090;2023-01-31T23:02:46;101034.47;;;5.69;80.61
12360;BME280;6244;51.460;7.090;2023-01-31T23:07:43;101020.59;;;5.69;80.83
12360;BME280;6244;51.460;7.090;2023-01-31T23:12:42;101025.81;;;5.69;80.66
12360;BME280;6244;51.460;7.090;2023-01-31T23:17:41;101005.06;;;5.66;81.06
12360;BME280;6244;51.460;7.090;2023-01-31T23:22:37;101005.97;;;5.65;81.27
12360;BME280;6244;51.460;7.090;2023-01-31T23:27:34;101009.50;;;5.62;81.02
12360;BME280;6244;51.460;7.090;2023-01-31T23:32:33;101004.22;;;5.65;80.90
12360;BME280;6244;51.460;7.090;2023-01-31T23:37:29;100991.19;;;5.65;81.04
12360;BME280;6244;51.460;7.090;2023-01-31T23:42:26;100987.81;;;5.62;81.01
12360;BME280;6244;51.460;7.090;2023-01-31T23:47:23;100993.84;;;5.64;81.02
12360;BME280;6244;51.460;7.090;2023-01-31T23:52:21;101004.16;;;5.67;81.19
12360;BME280;6244;51.460;7.090;2023-01-31T23:57:17;100999.03;;;5.64;80.82
